Time;durP1;ratioP1;P1;durP2;ratioP2;P2;SDS_P1;SDS_P2;PMS_P1;PMS_P2;Temp;Humidity;BMP_temperature;BMP_pressure;BME280_temperature;BME280_humidity;BME280_pressure;Samples;Min_cycle;Max_cycle;Signal;HPM_P1;HPM_P2
2024/01/25 00:02:22;;;;;;;45.33;9.40;;;;;;;8.73;100.00;102660.31;5068578;28;20040;-67
2024/01/25 00:05:10;;;;;;;32.28;8.60;;;;;;;8.71;100.00;102657.81;5070881;28;20080;-67
2024/01/25 00:07:58;;;;;;;32.97;8.80;;;;;;;8.68;100.00;102649.22;5051762;28;20058;-67
2024/01/25 00:10:46;;;;;;;31.02;8.00;;;;;;;8.68;100.00;102651.94;5077743;28;20049;-66
2024/01/25 00:13:34;;;;;;;37.97;9.32;;;;;;;8.64;100.00;102667.84;5077984;28;20055;-67
2024/01/25 00:16:22;;;;;;;39.47;9.38;;;;;;;8.62;100.00;102671.81;5074881;28;20036;-67
2024/01/25 00:19:10;;;;;;;32.72;8.57;;;;;;;8.61;100.00;102657.41;5078430;28;20075;-67
2024/01/25 00:21:58;;;;;;;38.92;8.30;;;;;;;8.62;100.00;102666.41;5063896;28;20087;-66
2024/01/25 00:24:46;;;;;;;39.63;8.88;;;;;;;8.60;100.00;102654.91;5079306;28;20493;-66
2024/01/25 00:27:34;;;;;;;35.00;8.55;;;;;;;8.59;100.00;102669.53;5076336;28;20440;-67
2024/01/25 00:30:22;;;;;;;32.97;8.07;;;;;;;8.58;100.00;102659.69;5078483;28;20041;-67
2024/01/25 00:33:10;;;;;;;36.80;8.65;;;;;;;8.58;100.00;102665.97;5064064;28;20394;-67
2024/01/25 00:35:59;;;;;;;32.22;8.02;;;;;;;8.56;100.00;102662.59;5077598;28;20049;-67
2024/01/25 00:38:47;;;;;;;31.52;8.02;;;;;;;8.57;100.00;102663.47;5064758;28;20508;-67
2024/01/25 00:41:35;;;;;;;28.42;7.80;;;;;;;8.57;100.00;102672.44;5060646;28;20107;-67
2024/01/25 00:44:24;;;;;;;31.92;8.13;;;;;;;8.59;100.00;102677.69;5048661;28;20124;-66
2024/01/25 00:47:12;;;;;;;35.88;8.07;;;;;;;8.60;100.00;102671.19;5066235;28;20095;-67
2024/01/25 00:50:00;;;;;;;36.28;9.05;;;;;;;8.59;100.00;102677.69;5063586;28;20047;-67
2024/01/25 00:52:49;;;;;;;29.20;7.65;;;;;;;8.55;100.00;102679.97;5065146;28;20040;-66
2024/01/25 00:55:37;;;;;;;34.42;8.50;;;;;;;8.52;100.00;102683.13;5048489;28;20083;-66
2024/01/25 00:58:26;;;;;;;37.05;8.27;;;;;;;8.53;100.00;102682.88;5078464;28;20060;-66
2024/01/25 01:01:14;;;;;;;30.52;7.50;;;;;;;8.51;100.00;102685.00;5059903;28;20080;-66
2024/01/25 01:04:03;;;;;;;36.63;8.98;;;;;;;8.51;100.00;102687.72;5078047;28;20049;-66
2024/01/25 01:06:51;;;;;;;34.72;7.68;;;;;;;8.52;100.00;102693.97;5072635;28;20516;-67
2024/01/25 01:09:39;;;;;;;28.38;8.00;;;;;;;8.47;100.00;102694.59;5059295;28;20059;-67
2024/01/25 01:12:27;;;;;;;35.45;8.15;;;;;;;8.47;100.00;102691.06;5074732;28;20095;-66
2024/01/25 01:15:15;;;;;;;30.98;7.72;;;;;;;8.44;100.00;102692.31;5076007;28;20049;-66
2024/01/25 01:18:05;;;;;;;32.38;7.95;;;;;;;8.43;100.00;102693.34;5061925;28;20037;-67
2024/01/25 01:20:53;;;;;;;33.88;7.88;;;;;;;8.40;100.00;102699.19;5059648;28;20576;-66
2024/01/25 01:23:41;;;;;;;34.28;7.50;;;;;;;8.39;100.00;102697.47;5045399;28;20033;-67
2024/01/25 01:26:29;;;;;;;32.00;7.32;;;;;;;8.39;100.00;102707.50;5067086;28;20075;-66
2024/01/25 01:29:18;;;;;;;33.42;7.93;;;;;;;8.36;100.00;102699.78;5060375;28;20420;-67
2024/01/25 01:32:06;;;;;;;33.15;7.50;;;;;;;8.32;100.00;102696.63;5045841;28;20159;-67
2024/01/25 01:34:54;;;;;;;31.77;7.30;;;;;;;8.30;100.00;102698.75;5060150;28;20126;-67
2024/01/25 01:37:42;;;;;;;32.70;8.40;;;;;;;8.30;100.00;102709.59;5060966;28;20052;-67
2024/01/25 01:40:30;;;;;;;29.95;8.50;;;;;;;8.29;100.00;102718.78;5063263;28;20513;-67
2024/01/25 01:43:20;;;;;;;38.70;8.98;;;;;;;8.27;100.00;102718.13;5077590;28;20052;-67
2024/01/25 01:46:25;;;;;;;32.80;7.28;;;;;;;8.26;100.00;102709.16;5040542;28;20079;-67
2024/01/25 01:49:14;;;;;;;29.95;8.18;;;;;;;8.25;100.00;102717.50;5075763;28;20175;-66
2024/01/25 01:52:02;;;;;;;34.92;8.48;;;;;;;8.24;100.00;102722.09;5060234;28;20501;-66
2024/01/25 01:54:50;;;;;;;35.00;8.85;;;;;;;8.23;100.00;102730.47;5045650;28;20412;-67
2024/01/25 01:57:39;;;;;;;30.83;7.90;;;;;;;8.22;100.00;102728.78;5058886;28;20049;-66
2024/01/25 02:00:30;;;;;;;33.55;8.02;;;;;;;8.22;100.00;102731.50;5032521;28;20401;-68
2024/01/25 02:03:20;;;;;;;30.52;7.85;;;;;;;8.22;100.00;102739.66;5071395;28;20036;-67
2024/01/25 02:06:09;;;;;;;38.85;9.02;;;;;;;8.21;100.00;102735.28;5060080;28;20067;-67
2024/01/25 02:08:59;;;;;;;34.10;8.73;;;;;;;8.20;100.00;102744.44;5046563;28;20051;-66
2024/01/25 02:11:47;;;;;;;36.42;8.02;;;;;;;8.20;100.00;102752.59;5033293;28;20481;-66
2024/01/25 02:14:35;;;;;;;33.78;7.70;;;;;;;8.19;100.00;102750.94;5043884;28;20048;-67
2024/01/25 02:17:23;;;;;;;33.75;7.53;;;;;;;8.20;100.00;102760.72;5092956;28;20071;-66
2024/01/25 02:20:12;;;;;;;36.22;8.35;;;;;;;8.20;100.00;102763.44;5092756;28;20098;-67
2024/01/25 02:23:00;;;;;;;31.67;7.68;;;;;;;8.19;100.00;102764.50;5069853;28;20052;-66
2024/01/25 02:25:48;;;;;;;31.90;7.70;;;;;;;8.16;100.00;102763.03;5074420;28;20124;-67
2024/01/25 02:28:36;;;;;;;31.67;7.65;;;;;;;8.16;100.00;102767.63;5059448;28;20044;-66
2024/01/25 02:31:24;;;;;;;34.47;8.20;;;;;;;8.14;100.00;102761.56;5059367;28;20508;-66
2024/01/25 02:34:13;;;;;;;35.50;7.93;;;;;;;8.13;100.00;102762.59;5072775;28;20051;-67
2024/01/25 02:37:01;;;;;;;32.63;8.45;;;;;;;8.11;100.00;102760.09;5071753;28;20045;-68
2024/01/25 02:39:49;;;;;;;37.90;8.13;;;;;;;8.10;100.00;102766.56;5033304;28;20048;-67
2024/01/25 02:42:38;;;;;;;36.38;8.25;;;;;;;8.09;100.00;102763.00;5059978;28;20593;-66
2024/01/25 02:45:26;;;;;;;32.72;7.70;;;;;;;8.10;100.00;102758.41;5061524;28;20055;-67
2024/01/25 02:48:15;;;;;;;32.53;8.82;;;;;;;8.11;100.00;102746.53;5044941;28;20040;-68
2024/01/25 02:51:03;;;;;;;29.42;7.20;;;;;;;8.10;100.00;102745.69;5078591;28;20047;-66
2024/01/25 02:53:51;;;;;;;28.90;7.10;;;;;;;8.08;100.00;102761.34;5077777;28;20076;-66
2024/01/25 02:56:39;;;;;;;27.83;7.60;;;;;;;8.06;100.00;102765.31;5054689;28;20531;-68
2024/01/25 02:59:27;;;;;;;33.78;8.23;;;;;;;8.05;100.00;102758.19;5066614;28;20426;-66
2024/01/25 03:02:18;;;;;;;33.28;9.27;;;;;;;8.02;100.00;102754.00;5061275;28;20142;-68
2024/01/25 03:05:06;;;;;;;31.52;7.82;;;;;;;7.99;100.00;102757.13;5072544;28;20052;-66
2024/01/25 03:07:55;;;;;;;33.25;9.35;;;;;;;7.98;100.00;102760.88;5069462;28;20142;-66
2024/01/25 03:10:43;;;;;;;32.63;8.38;;;;;;;7.98;100.00;102754.59;5081490;28;20048;-67
2024/01/25 03:13:31;;;;;;;36.85;8.73;;;;;;;7.97;100.00;102758.38;5060153;28;20123;-67
2024/01/25 03:16:19;;;;;;;30.05;8.30;;;;;;;7.95;100.00;102753.13;5073163;28;20190;-66
2024/01/25 03:19:07;;;;;;;37.63;8.18;;;;;;;7.91;100.00;102760.00;5060090;28;20044;-67
2024/01/25 03:21:55;;;;;;;39.67;9.02;;;;;;;7.87;100.00;102758.75;5057262;28;20513;-66
2024/01/25 03:24:43;;;;;;;40.40;8.93;;;;;;;7.86;100.00;102767.91;5058683;28;20061;-67
2024/01/25 03:27:31;;;;;;;35.83;8.63;;;;;;;7.84;100.00;102775.41;5042291;28;20505;-66
2024/01/25 03:30:20;;;;;;;32.03;8.05;;;;;;;7.84;100.00;102770.00;5044032;28;20049;-68
2024/01/25 03:33:08;;;;;;;37.13;8.75;;;;;;;7.87;100.00;102770.44;5057660;28;20067;-67
2024/01/25 03:35:56;;;;;;;34.03;7.82;;;;;;;7.87;100.00;102783.19;5058619;28;20067;-67
2024/01/25 03:38:44;;;;;;;32.53;8.25;;;;;;;7.87;100.00;102781.28;5070947;28;20052;-67
2024/01/25 03:41:32;;;;;;;35.88;8.70;;;;;;;7.87;100.00;102772.31;5055405;28;20513;-67
2024/01/25 03:44:20;;;;;;;30.80;7.78;;;;;;;7.85;100.00;102779.81;5072790;28;20094;-67
2024/01/25 03:47:08;;;;;;;30.90;7.22;;;;;;;7.85;100.00;102774.41;5079240;28;20137;-68
2024/01/25 03:49:56;;;;;;;36.03;8.90;;;;;;;7.84;100.00;102772.69;5091623;28;20059;-67
2024/01/25 03:52:44;;;;;;;30.50;8.25;;;;;;;7.84;100.00;102775.41;5030251;28;20052;-66
2024/01/25 03:55:33;;;;;;;27.30;7.10;;;;;;;7.85;100.00;102779.81;5058084;28;20572;-67
2024/01/25 03:58:21;;;;;;;33.83;8.65;;;;;;;7.83;100.00;102781.91;5044056;28;20044;-66
2024/01/25 04:01:09;;;;;;;29.20;8.32;;;;;;;7.81;100.00;102775.81;5043256;28;20409;-66
2024/01/25 04:03:57;;;;;;;34.13;8.70;;;;;;;7.77;100.00;102775.41;5070747;28;20107;-66
2024/01/25 04:06:46;;;;;;;33.60;8.50;;;;;;;7.76;100.00;102771.00;5057002;28;20049;-66
2024/01/25 04:09:34;;;;;;;31.25;8.88;;;;;;;7.74;100.00;102788.53;5072663;28;20055;-66
2024/01/25 04:12:24;;;;;;;30.88;8.65;;;;;;;7.71;100.00;102780.78;5037060;28;20080;-66
2024/01/25 04:15:12;;;;;;;33.10;7.82;;;;;;;7.67;100.00;102775.78;5070840;28;20174;-67
2024/01/25 04:18:00;;;;;;;31.98;7.95;;;;;;;7.65;100.00;102783.28;5036855;28;20053;-67
2024/01/25 04:20:50;;;;;;;30.02;8.30;;;;;;;7.64;100.00;102787.00;5053582;28;20501;-67
2024/01/25 04:23:38;;;;;;;34.20;8.50;;;;;;;7.65;100.00;102790.59;5069701;28;20055;-66
2024/01/25 04:26:26;;;;;;;28.20;7.50;;;;;;;7.65;100.00;102782.44;5049311;28;20064;-67
2024/01/25 04:29:14;;;;;;;36.22;8.00;;;;;;;7.63;100.00;102779.91;5064056;28;20041;-66
2024/01/25 04:32:02;;;;;;;32.70;7.47;;;;;;;7.63;100.00;102774.50;5061292;28;20048;-67
2024/01/25 04:34:50;;;;;;;30.90;8.55;;;;;;;7.62;100.00;102778.22;5068752;28;20553;-66
2024/01/25 04:37:38;;;;;;;31.73;7.68;;;;;;;7.59;100.00;102783.22;5037037;28;20474;-68
2024/01/25 04:40:26;;;;;;;38.75;9.00;;;;;;;7.55;100.00;102776.50;5053369;28;20296;-66
2024/01/25 04:43:15;;;;;;;34.90;8.50;;;;;;;7.53;100.00;102779.44;5065501;28;20044;-66
2024/01/25 04:46:03;;;;;;;29.40;7.95;;;;;;;7.49;100.00;102777.31;5094906;28;20388;-67
2024/01/25 04:48:51;;;;;;;34.53;8.57;;;;;;;7.48;100.00;102776.50;5094541;28;20052;-66
2024/01/25 04:51:40;;;;;;;34.20;7.80;;;;;;;7.47;100.00;102788.38;5064858;28;20055;-66
2024/01/25 04:54:28;;;;;;;37.08;8.50;;;;;;;7.47;100.00;102782.94;5060268;28;20047;-66
2024/01/25 04:57:16;;;;;;;35.33;8.75;;;;;;;7.45;100.00;102782.31;5080813;28;20481;-67
2024/01/25 05:00:04;;;;;;;34.70;9.05;;;;;;;7.40;100.00;102779.34;5081990;28;20133;-66
2024/01/25 05:02:52;;;;;;;31.70;7.90;;;;;;;7.39;100.00;102777.69;5059825;28;20432;-66
2024/01/25 05:05:40;;;;;;;31.98;7.90;;;;;;;7.36;100.00;102781.63;5059500;28;20099;-66
2024/01/25 05:08:28;;;;;;;31.80;8.45;;;;;;;7.33;100.00;102779.28;5073930;28;20044;-67
2024/01/25 05:11:16;;;;;;;34.90;7.78;;;;;;;7.33;100.00;102783.88;5060197;28;20056;-66
2024/01/25 05:14:04;;;;;;;30.20;7.90;;;;;;;7.33;100.00;102783.88;5061183;28;20135;-66
2024/01/25 05:16:52;;;;;;;42.03;9.35;;;;;;;7.29;100.00;102783.47;5074494;28;20569;-65
2024/01/25 05:19:40;;;;;;;31.30;8.57;;;;;;;7.29;100.00;102777.19;5076392;28;20046;-67
2024/01/25 05:22:29;;;;;;;30.98;8.10;;;;;;;7.27;100.00;102771.13;5075176;28;20574;-67
2024/01/25 05:25:17;;;;;;;32.13;7.65;;;;;;;7.23;100.00;102768.81;5055253;28;20136;-66
2024/01/25 05:28:05;;;;;;;33.63;8.18;;;;;;;7.22;100.00;102772.56;5054972;28;20041;-66
2024/01/25 05:30:53;;;;;;;30.20;8.05;;;;;;;7.21;100.00;102775.47;5055596;28;20253;-67
2024/01/25 05:33:42;;;;;;;36.17;9.23;;;;;;;7.19;100.00;102775.69;5039407;28;20482;-67
2024/01/25 05:36:30;;;;;;;27.45;7.65;;;;;;;7.19;100.00;102783.81;5075343;28;20047;-66
2024/01/25 05:39:20;;;;;;;33.28;8.15;;;;;;;7.17;100.00;102779.63;5077345;28;20515;-67
2024/01/25 05:42:08;;;;;;;37.35;8.00;;;;;;;7.13;100.00;102775.63;5047274;28;20052;-67
2024/01/25 05:44:56;;;;;;;31.73;8.45;;;;;;;7.12;100.00;102776.63;5072837;28;20485;-66
2024/01/25 05:47:44;;;;;;;38.22;9.07;;;;;;;7.12;100.00;102777.50;5075809;28;20045;-66
2024/01/25 05:50:33;;;;;;;35.78;8.55;;;;;;;7.12;100.00;102792.91;5074043;28;20059;-66
2024/01/25 05:53:22;;;;;;;38.47;8.73;;;;;;;7.10;100.00;102795.81;5073978;28;20146;-68
2024/01/25 05:56:10;;;;;;;33.25;8.70;;;;;;;7.10;100.00;102803.97;5046811;28;20178;-67
2024/01/25 05:58:58;;;;;;;34.17;8.70;;;;;;;7.12;100.00;102815.44;5074541;28;20469;-67
2024/01/25 06:01:46;;;;;;;36.53;9.25;;;;;;;7.12;100.00;102817.28;5075715;28;20497;-68
2024/01/25 06:04:36;;;;;;;32.00;8.48;;;;;;;7.08;100.00;102806.03;5072812;28;20052;-66
2024/01/25 06:07:25;;;;;;;30.20;7.78;;;;;;;7.06;100.00;102799.94;5062446;28;20063;-67
2024/01/25 06:10:13;;;;;;;33.30;8.75;;;;;;;7.04;100.00;102796.59;5073414;28;20040;-67
2024/01/25 06:13:01;;;;;;;29.45;8.05;;;;;;;7.01;100.00;102797.00;5046546;28;20513;-67
2024/01/25 06:15:50;;;;;;;30.58;8.70;;;;;;;6.99;100.00;102799.06;5052391;28;20041;-66
2024/01/25 06:18:38;;;;;;;33.95;8.77;;;;;;;6.99;100.00;102793.63;5053236;28;20422;-66
2024/01/25 06:21:26;;;;;;;37.58;8.45;;;;;;;7.01;100.00;102802.41;5053331;28;20041;-67
2024/01/25 06:24:15;;;;;;;33.50;8.40;;;;;;;7.03;100.00;102812.03;5054001;28;20126;-67
2024/01/25 06:27:03;;;;;;;36.08;9.18;;;;;;;7.06;100.00;102820.81;5058043;28;20436;-67
2024/01/25 06:29:51;;;;;;;35.90;8.57;;;;;;;7.08;100.00;102818.75;5074516;28;20658;-67
2024/01/25 06:32:39;;;;;;;34.67;8.43;;;;;;;7.11;100.00;102811.03;5045543;28;20044;-67
2024/01/25 06:35:27;;;;;;;33.67;8.75;;;;;;;7.12;100.00;102810.03;5051586;28;20452;-67
2024/01/25 06:38:16;;;;;;;30.38;8.30;;;;;;;7.08;100.00;102811.44;5039562;28;20049;-65
2024/01/25 06:41:04;;;;;;;35.40;9.05;;;;;;;7.04;100.00;102819.13;5069812;28;20069;-67
2024/01/25 06:43:52;;;;;;;30.60;8.10;;;;;;;7.04;100.00;102819.13;5059487;28;20051;-65
2024/01/25 06:46:40;;;;;;;33.70;8.82;;;;;;;7.06;100.00;102820.81;5052208;28;20049;-66
2024/01/25 06:49:28;;;;;;;32.40;8.57;;;;;;;7.08;100.00;102826.88;5040434;28;20048;-66
2024/01/25 06:52:20;;;;;;;33.03;8.43;;;;;;;7.09;100.00;102837.50;5025914;28;20362;-67
2024/01/25 06:55:08;;;;;;;33.75;9.05;;;;;;;7.05;100.00;102833.53;5057434;28;20063;-67
2024/01/25 06:57:57;;;;;;;41.03;8.93;;;;;;;7.01;100.00;102832.22;5077174;28;20097;-65
2024/01/25 07:00:46;;;;;;;32.88;9.07;;;;;;;6.88;100.00;102834.78;5045852;28;20047;-66
2024/01/25 07:03:35;;;;;;;42.28;9.75;;;;;;;6.74;100.00;102840.09;5070633;28;20041;-67
2024/01/25 07:06:24;;;;;;;40.92;9.20;;;;;;;6.64;100.00;102838.72;5037610;28;20057;-66
2024/01/25 07:09:12;;;;;;;43.47;10.00;;;;;;;6.60;100.00;102835.56;5054576;28;20055;-67
2024/01/25 07:12:00;;;;;;;37.67;9.30;;;;;;;6.58;100.00;102824.91;5050260;28;20084;-66
2024/01/25 07:14:48;;;;;;;38.50;10.23;;;;;;;6.65;100.00;102816.88;4366707;28;10000225;-66
2024/01/25 07:17:36;;;;;;;43.00;10.50;;;;;;;6.70;100.00;102816.28;5064862;28;20290;-66
2024/01/25 07:20:24;;;;;;;32.97;8.70;;;;;;;6.73;100.00;102811.31;5060896;28;20040;-67
2024/01/25 07:23:13;;;;;;;32.95;8.90;;;;;;;6.77;100.00;102814.50;5050518;28;20158;-66
2024/01/25 07:26:01;;;;;;;39.10;10.02;;;;;;;6.78;100.00;102811.59;5070126;28;20044;-66
2024/01/25 07:28:49;;;;;;;38.60;9.93;;;;;;;6.80;100.00;102812.22;5048106;28;20059;-68
2024/01/25 07:31:37;;;;;;;31.02;8.70;;;;;;;6.79;100.00;102815.16;5058067;28;20509;-66
2024/01/25 07:34:26;;;;;;;31.27;8.35;;;;;;;6.75;100.00;102814.69;5052767;28;20497;-67
2024/01/25 07:37:15;;;;;;;29.15;8.57;;;;;;;6.71;100.00;102815.25;5038760;28;20041;-67
2024/01/25 07:40:04;;;;;;;35.78;9.25;;;;;;;6.70;100.00;102824.44;5042880;28;20048;-67
2024/01/25 07:42:52;;;;;;;36.67;9.07;;;;;;;6.72;100.00;102820.50;5038770;28;20048;-65
2024/01/25 07:45:41;;;;;;;36.08;9.48;;;;;;;6.76;100.00;102827.22;5043062;28;21025;-66
2024/01/25 07:48:29;;;;;;;31.77;10.38;;;;;;;6.77;100.00;102844.28;5053879;28;20053;-66
2024/01/25 07:51:17;;;;;;;33.33;8.80;;;;;;;6.77;100.00;102833.47;5047127;28;20183;-65
2024/01/25 07:54:05;;;;;;;30.05;8.30;;;;;;;6.79;100.00;102847.66;5034184;28;20044;-68
2024/01/25 07:56:53;;;;;;;29.77;8.15;;;;;;;6.83;100.00;102844.38;5063877;28;20480;-67
2024/01/25 07:59:41;;;;;;;27.33;8.10;;;;;;;6.89;100.00;102852.75;5058447;28;20049;-67
2024/01/25 08:02:29;;;;;;;29.27;9.10;;;;;;;6.89;100.00;102852.75;5071763;28;20052;-67
2024/01/25 08:05:17;;;;;;;31.13;8.38;;;;;;;6.86;100.00;102842.31;5057991;28;20152;-67
2024/01/25 08:08:06;;;;;;;32.72;9.38;;;;;;;6.82;100.00;102831.00;5057933;28;20056;-66
2024/01/25 08:10:54;;;;;;;37.28;9.07;;;;;;;6.79;100.00;102837.66;5045139;28;20138;-66
2024/01/25 08:13:45;;;;;;;33.70;8.88;;;;;;;6.77;100.00;102838.88;5064630;28;20485;-65
2024/01/25 08:16:35;;;;;;;35.70;9.30;;;;;;;6.79;100.00;102843.06;5047907;28;20523;-65
2024/01/25 08:19:23;;;;;;;30.10;8.18;;;;;;;6.83;100.00;102855.22;5061053;28;20048;-65
2024/01/25 08:22:12;;;;;;;36.67;9.20;;;;;;;6.85;100.00;102852.28;5058911;28;20174;-66
2024/01/25 08:25:00;;;;;;;32.03;8.75;;;;;;;6.89;100.00;102841.91;5074656;28;20056;-66
2024/01/25 08:27:48;;;;;;;30.95;8.95;;;;;;;6.89;100.00;102844.63;5061055;28;20094;-66
2024/01/25 08:30:36;;;;;;;36.13;9.35;;;;;;;6.90;100.00;102838.16;5075776;28;20089;-66
2024/01/25 08:33:27;;;;;;;29.88;8.80;;;;;;;6.91;100.00;102845.28;5061027;28;20161;-67
2024/01/25 08:36:18;;;;;;;32.75;8.70;;;;;;;6.93;100.00;102875.72;5047939;28;20461;-66
2024/01/25 08:39:08;;;;;;;31.90;8.75;;;;;;;6.94;100.00;102872.81;5060819;28;20124;-67
2024/01/25 08:42:00;;;;;;;32.13;8.65;;;;;;;6.98;100.00;102859.72;5076047;28;20497;-66
2024/01/25 08:44:49;;;;;;;29.15;8.73;;;;;;;6.98;100.00;102832.63;5061329;28;20064;-67
2024/01/25 08:47:38;;;;;;;33.00;9.65;;;;;;;6.96;100.00;102816.53;5059483;28;20044;-67
2024/01/25 08:50:26;;;;;;;36.45;9.70;;;;;;;6.93;100.00;102814.25;5064886;28;20041;-67
2024/01/25 08:53:16;;;;;;;30.33;9.27;;;;;;;6.93;100.00;102826.97;5061639;28;20381;-66
2024/01/25 08:56:04;;;;;;;28.92;8.52;;;;;;;6.91;100.00;102856.13;5061172;28;20095;-66
2024/01/25 08:58:53;;;;;;;29.27;8.95;;;;;;;6.90;100.00;102860.66;5046743;28;20048;-66
2024/01/25 09:01:41;;;;;;;33.38;8.98;;;;;;;6.91;100.00;102866.94;5074399;28;20044;-66
2024/01/25 09:04:29;;;;;;;28.15;8.88;;;;;;;6.89;100.00;102866.31;5085011;28;20142;-66
2024/01/25 09:07:17;;;;;;;31.08;8.02;;;;;;;6.91;100.00;102872.38;5059357;28;20055;-66
2024/01/25 09:10:06;;;;;;;28.73;7.93;;;;;;;6.90;100.00;102884.22;5060000;28;20519;-66
2024/01/25 09:12:54;;;;;;;26.95;8.52;;;;;;;6.90;100.00;102882.34;5076121;28;20415;-65
2024/01/25 09:15:44;;;;;;;34.10;9.00;;;;;;;6.93;100.00;102886.56;5073696;28;20041;-65
2024/01/25 09:18:32;;;;;;;27.17;8.25;;;;;;;6.94;100.00;102880.09;5040673;28;20048;-65
2024/01/25 09:21:21;;;;;;;30.48;8.52;;;;;;;6.95;100.00;102885.34;5063901;28;20416;-65
2024/01/25 09:24:09;;;;;;;27.25;8.02;;;;;;;6.98;100.00;102884.94;5074958;28;20095;-67
2024/01/25 09:26:59;;;;;;;28.23;9.20;;;;;;;7.01;100.00;102878.31;5054416;28;20056;-66
2024/01/25 09:29:47;;;;;;;26.67;8.45;;;;;;;7.01;100.00;102864.75;5058086;28;20148;-67
2024/01/25 09:32:35;;;;;;;32.92;10.25;;;;;;;6.99;100.00;102866.81;5047256;28;20052;-67
2024/01/25 09:35:24;;;;;;;25.25;7.82;;;;;;;7.00;100.00;102865.81;5044384;28;20531;-67
2024/01/25 09:38:13;;;;;;;27.63;8.23;;;;;;;7.03;100.00;102859.97;5060886;28;20048;-66
2024/01/25 09:41:01;;;;;;;28.75;8.23;;;;;;;7.05;100.00;102857.91;5028214;28;20055;-67
2024/01/25 09:43:51;;;;;;;31.77;9.32;;;;;;;7.08;100.00;102853.97;5061065;28;20052;-68
2024/01/25 09:46:40;;;;;;;34.03;9.63;;;;;;;7.16;100.00;102862.78;5060916;28;20531;-65
2024/01/25 09:49:28;;;;;;;34.85;9.18;;;;;;;7.18;100.00;102852.59;5064036;28;20171;-66
2024/01/25 09:52:24;;;;;;;32.05;10.20;;;;;;;7.16;100.00;102867.38;5034466;28;20036;-66
2024/01/25 09:55:19;;;;;;;29.25;8.95;;;;;;;7.17;100.00;102861.78;5062090;28;20051;-65
2024/01/25 09:58:08;;;;;;;34.35;10.85;;;;;;;7.17;100.00;102867.19;5077772;28;20048;-66
2024/01/25 10:00:56;;;;;;;33.20;9.82;;;;;;;7.21;100.00;102851.38;5077291;28;20124;-66
2024/01/25 10:03:46;;;;;;;36.78;10.25;;;;;;;7.14;100.00;102855.91;5076927;28;20048;-66
2024/01/25 10:06:34;;;;;;;44.45;11.68;;;;;;;7.02;100.00;102853.72;5077523;28;20409;-66
2024/01/25 10:09:23;;;;;;;36.78;10.43;;;;;;;7.01;100.00;102840.38;5060842;28;20049;-66
2024/01/25 10:12:11;;;;;;;42.40;12.10;;;;;;;6.99;100.00;102837.00;5068133;28;20060;-64
2024/01/25 10:15:08;;;;;;;37.33;10.40;;;;;;;7.03;100.00;102832.88;5046976;28;20066;-66
2024/01/25 10:17:56;;;;;;;30.08;8.57;;;;;;;7.11;100.00;102831.91;5060601;28;20586;-67
2024/01/25 10:21:04;;;;;;;32.13;9.50;;;;;;;7.15;100.00;102846.75;5049665;28;20559;-67
2024/01/25 10:23:54;;;;;;;31.83;9.23;;;;;;;7.19;100.00;102838.03;5047029;28;20048;-66
2024/01/25 10:26:44;;;;;;;35.50;9.98;;;;;;;7.24;100.00;102829.31;5059833;28;20175;-67
2024/01/25 10:29:34;;;;;;;32.97;10.35;;;;;;;7.33;100.00;102840.84;5072632;28;20048;-66
2024/01/25 10:32:22;;;;;;;30.55;10.05;;;;;;;7.35;100.00;102841.47;5044824;28;20455;-66
2024/01/25 10:35:10;;;;;;;32.47;9.93;;;;;;;7.37;100.00;102839.41;5058723;28;20472;-66
2024/01/25 10:37:59;;;;;;;34.67;10.15;;;;;;;7.39;100.00;102842.78;5059362;28;20782;-66
2024/01/25 10:40:47;;;;;;;30.50;10.60;;;;;;;7.39;100.00;102819.19;5072275;28;20051;-66
2024/01/25 10:43:36;;;;;;;32.20;9.30;;;;;;;7.39;100.00;102821.06;5073835;28;20405;-67
2024/01/25 10:46:25;;;;;;;28.40;9.68;;;;;;;7.42;100.00;102820.66;5072702;28;20123;-66
2024/01/25 10:49:13;;;;;;;32.65;10.80;;;;;;;7.36;100.00;102816.03;5058125;28;20102;-67
2024/01/25 10:52:02;;;;;;;33.60;11.13;;;;;;;7.31;100.00;102819.34;5072912;28;20496;-67
2024/01/25 10:54:50;;;;;;;35.45;11.88;;;;;;;7.29;100.00;102825.97;5059669;28;20041;-67
2024/01/25 10:57:42;;;;;;;40.90;12.05;;;;;;;7.28;100.00;102816.19;5071236;28;20116;-67
2024/01/25 11:00:33;;;;;;;37.92;11.88;;;;;;;7.29;100.00;102804.28;5072352;28;20150;-67
2024/01/25 11:03:25;;;;;;;38.95;13.18;;;;;;;7.32;100.00;102798.50;5045203;28;20056;-66
2024/01/25 11:06:14;;;;;;;36.65;12.82;;;;;;;7.33;100.00;102802.88;5032269;28;20063;-66
2024/01/25 11:09:06;;;;;;;38.97;12.55;;;;;;;7.34;100.00;102794.53;5062939;28;20522;-65
2024/01/25 11:11:58;;;;;;;40.63;12.80;;;;;;;7.34;100.00;102799.13;5092951;28;20051;-67
2024/01/25 11:14:53;;;;;;;35.13;10.70;;;;;;;7.39;100.00;102800.22;5077991;28;20118;-65
2024/01/25 11:17:41;;;;;;;32.42;9.73;;;;;;;7.46;100.00;102805.69;5070919;28;20071;-65
2024/01/25 11:20:31;;;;;;;33.78;10.25;;;;;;;7.50;100.00;102796.09;5043658;28;20119;-66
2024/01/25 11:23:19;;;;;;;30.63;10.10;;;;;;;7.53;100.00;102793.00;5058068;28;20042;-65
2024/01/25 11:26:09;;;;;;;31.23;10.02;;;;;;;7.54;100.00;102762.13;5057982;28;20078;-67
2024/01/25 11:28:59;;;;;;;45.28;11.70;;;;;;;7.56;100.00;102751.91;5060702;28;20041;-65
2024/01/25 11:31:49;;;;;;;33.13;10.43;;;;;;;7.57;100.00;102747.31;5064799;28;20222;-66
2024/01/25 11:34:37;;;;;;;35.20;11.40;;;;;;;7.60;100.00;102745.06;5067094;28;20111;-66
2024/01/25 11:37:26;;;;;;;33.13;10.98;;;;;;;7.60;100.00;102747.78;5055058;28;20059;-67
2024/01/25 11:40:15;;;;;;;35.75;11.07;;;;;;;7.61;100.00;102752.16;5062149;28;20048;-66
2024/01/25 11:43:10;;;;;;;35.13;10.73;;;;;;;7.63;100.00;102743.81;5049040;28;20103;-67
2024/01/25 11:45:59;;;;;;;39.15;12.45;;;;;;;7.64;100.00;102740.06;5032341;28;20128;-67
2024/01/25 11:48:47;;;;;;;40.03;12.73;;;;;;;7.63;100.00;102741.94;5057173;28;20461;-65
2024/01/25 11:51:36;;;;;;;32.10;12.23;;;;;;;7.65;100.00;102736.31;5045034;28;20166;-67
2024/01/25 11:54:24;;;;;;;39.83;12.65;;;;;;;7.65;100.00;102731.72;5054957;28;20055;-66
2024/01/25 11:57:12;;;;;;;35.78;12.35;;;;;;;7.66;100.00;102717.09;5044038;28;20139;-67
2024/01/25 12:00:00;;;;;;;43.15;13.27;;;;;;;7.63;100.00;102724.81;5056669;28;20083;-67
2024/01/25 12:02:54;;;;;;;42.53;13.10;;;;;;;7.60;100.00;102752.34;5054244;28;20072;-69
2024/01/25 12:05:42;;;;;;;43.38;13.57;;;;;;;7.62;100.00;102751.09;5046796;28;20052;-68
2024/01/25 12:08:33;;;;;;;34.83;11.75;;;;;;;7.64;100.00;102749.03;5058125;28;20059;-68
2024/01/25 12:11:22;;;;;;;35.28;13.57;;;;;;;7.66;100.00;102738.81;5072781;28;20045;-68
2024/01/25 12:14:11;;;;;;;30.85;11.07;;;;;;;7.68;100.00;102717.75;5073086;28;20488;-68
2024/01/25 12:16:59;;;;;;;27.77;11.20;;;;;;;7.73;100.00;102708.19;5059560;28;20088;-67
2024/01/25 12:19:47;;;;;;;29.67;11.60;;;;;;;7.77;100.00;102704.00;5071475;28;20144;-67
2024/01/25 12:22:35;;;;;;;41.97;13.48;;;;;;;7.83;100.00;102700.47;5053661;28;20409;-67
2024/01/25 12:25:25;;;;;;;43.08;12.75;;;;;;;7.83;100.00;102695.06;5047912;28;20178;-67
2024/01/25 12:28:14;;;;;;;34.47;12.68;;;;;;;7.86;100.00;102698.22;5073822;28;20032;-68
2024/01/25 12:31:04;;;;;;;33.28;11.73;;;;;;;7.84;100.00;102689.44;5056059;28;20045;-68
2024/01/25 12:33:52;;;;;;;43.58;13.80;;;;;;;7.83;100.00;102671.47;5052356;28;20056;-68
2024/01/25 12:36:40;;;;;;;38.60;14.00;;;;;;;7.81;100.00;102672.72;5072522;28;20045;-68
2024/01/25 12:39:28;;;;;;;35.13;12.68;;;;;;;7.80;100.00;102684.63;5072486;28;20455;-69
2024/01/25 12:42:17;;;;;;;39.65;13.88;;;;;;;7.84;100.00;102667.72;5072098;28;20045;-68
2024/01/25 12:45:05;;;;;;;42.72;14.18;;;;;;;7.85;100.00;102677.53;5074418;28;20169;-68
2024/01/25 12:47:54;;;;;;;39.10;13.30;;;;;;;7.86;100.00;102670.22;5077829;28;20048;-69
2024/01/25 12:50:42;;;;;;;49.70;14.88;;;;;;;7.82;100.00;102683.38;5077810;28;20051;-68
2024/01/25 12:53:30;;;;;;;42.58;15.27;;;;;;;7.80;100.00;102698.19;5024452;28;20052;-68